KEGI/EGI METAR and TAF weather

Enter ICAO airport designator
Station Type Date Time Source
KEGI METAR 2021/08/01 15:56 UTC NOAA

KEGI 011556Z AUTO 28009KT 10SM FEW180 32/25 A3003 RMK AO2 SLP168 T03170250 $


Station Type Date Time Source
KEGI Decoded METAR 2021/08/01 15:56 UTC NOAA

Duke Field / Eglin Auxiliary, FL, United States (KEGI) 30-39N 086-31W
Aug 01, 2021 - 11:56 AM EDT / 2021.08.01 1556 UTC
Wind: from the W (280 degrees) at 10 MPH (9 KT):0
Visibility: 10 mile(s):0
Sky conditions: mostly clear
Temperature: 89.1 F (31.7 C)
Heat index: 101.5 F (38.6 C):1
Dew Point: 77.0 F (25.0 C)
Relative Humidity: 67%
Pressure (altimeter): 30.03 in. Hg (1016 hPa)
ob: KEGI 011556Z AUTO 28009KT 10SM FEW180 32/25 A3003 RMK AO2 SLP168 T03170250
cycle: 16

Station Type Date Time Source
KEGI TAF 2021/07/31 06:16 UTC NOAA

TAF
AMD KEGI 310600Z 3106/0107 25009KT 9999 FEW040 SCT200 QNH2996INS
BECMG 3118/3119 22009KT 9999 VCTS SCT040CB BKN250 QNH2994INS
TEMPO 3120/3123 22012G18KT 4800 -TSRA BKN040CB
BECMG 0100/0101 29006KT 9999 NSW FEW040 SCT250 QNH2996INS TX35/3121Z TN25/3111Z LAST NO
AMDS AFT 3106 NEXT 3117

Example: see airport list